createdAt,value
2019-03-23T00:02:17.504Z,56.47
2019-03-23T00:04:47.847Z,55.17
2019-03-23T00:07:18.064Z,60.13
2019-03-23T00:09:48.253Z,55.60
2019-03-23T00:12:18.689Z,56.70
2019-03-23T00:14:48.893Z,63.43
2019-03-23T00:17:19.080Z,63.97
2019-03-23T00:19:49.285Z,66.77
2019-03-23T00:22:19.553Z,65.53
2019-03-23T00:24:49.755Z,61.60
2019-03-23T00:27:19.965Z,62.00
2019-03-23T00:29:50.330Z,63.87
2019-03-23T00:32:20.523Z,63.75
2019-03-23T00:34:50.744Z,65.30
2019-03-23T00:37:20.940Z,63.68
2019-03-23T00:39:51.190Z,61.40
2019-03-23T00:42:21.689Z,70.53
2019-03-23T00:44:51.909Z,63.77
2019-03-23T00:47:22.386Z,70.43
2019-03-23T00:49:52.683Z,72.50
2019-03-23T00:52:22.886Z,70.10
2019-03-23T00:54:53.265Z,70.03
2019-03-23T00:57:23.532Z,68.27
2019-03-23T00:59:55.105Z,69.67
2019-03-23T01:02:27.351Z,73.43
2019-03-23T01:04:57.713Z,75.83
2019-03-23T01:07:28.025Z,74.27
2019-03-23T01:09:58.212Z,74.77
2019-03-23T01:12:28.589Z,69.30
2019-03-23T01:14:59.216Z,66.73
2019-03-23T01:17:29.410Z,70.47
2019-03-23T01:19:59.651Z,68.83
2019-03-23T01:22:29.864Z,68.27
2019-03-23T01:25:00.355Z,69.30
2019-03-23T01:27:30.555Z,64.37
2019-03-23T01:30:02.036Z,66.67
2019-03-23T01:32:32.498Z,64.13
2019-03-23T01:35:02.703Z,65.90
2019-03-23T01:37:33.211Z,67.20
2019-03-23T01:40:04.073Z,66.83
2019-03-23T01:42:34.277Z,60.37
2019-03-23T01:45:06.927Z,63.33
2019-03-23T01:47:37.187Z,60.28
2019-03-23T01:50:08.104Z,64.12
2019-03-23T01:52:38.817Z,62.90
2019-03-23T01:55:09.563Z,60.53
2019-03-23T01:57:40.309Z,58.50
2019-03-23T02:00:11.787Z,60.87
2019-03-23T02:02:43.410Z,55.10
2019-03-23T02:05:14.005Z,55.70
2019-03-23T02:07:44.189Z,56.83
2019-03-23T02:10:14.670Z,55.57
2019-03-23T02:12:44.885Z,57.73
2019-03-23T02:15:15.769Z,59.90
2019-03-23T02:17:45.987Z,60.60
2019-03-23T02:20:16.358Z,57.70
2019-03-23T02:22:46.565Z,58.23
2019-03-23T02:25:17.040Z,54.33
2019-03-23T02:27:47.242Z,56.77
2019-03-23T02:30:17.733Z,59.23
2019-03-23T02:32:47.930Z,55.43
2019-03-23T02:35:18.143Z,57.03
2019-03-23T02:37:48.358Z,58.67
2019-03-23T02:40:18.650Z,54.50
2019-03-23T02:42:49.132Z,57.33
2019-03-23T02:45:19.690Z,55.38
2019-03-23T02:47:49.975Z,49.40
2019-03-23T02:50:20.198Z,51.60
2019-03-23T02:52:52.683Z,57.67
2019-03-23T02:55:23.078Z,55.38
2019-03-23T02:57:53.303Z,51.48
2019-03-23T03:00:23.506Z,57.17
2019-03-23T03:02:53.735Z,54.20
2019-03-23T03:05:23.962Z,54.03
2019-03-23T03:07:54.338Z,54.10
2019-03-23T03:10:50.323Z,52.63
2019-03-23T03:13:20.771Z,55.60
2019-03-23T03:15:51.533Z,53.68
2019-03-23T03:18:22.031Z,56.00
2019-03-23T03:20:52.254Z,52.83
2019-03-23T03:23:22.528Z,53.48
2019-03-23T03:25:52.979Z,52.60
2019-03-23T03:28:23.197Z,51.23
2019-03-23T03:30:53.429Z,53.90
2019-03-23T03:33:23.898Z,53.43
2019-03-23T03:35:54.462Z,53.77
2019-03-23T03:38:24.686Z,54.73
2019-03-23T03:40:54.893Z,54.37
2019-03-23T03:43:25.195Z,53.13
2019-03-23T03:45:55.674Z,53.07
2019-03-23T03:48:25.879Z,51.97
2019-03-23T03:50:56.156Z,51.57
2019-03-23T03:53:27.001Z,55.00
2019-03-23T03:55:57.280Z,54.40
2019-03-23T03:58:27.629Z,53.80
2019-03-23T04:00:57.843Z,54.57
2019-03-23T04:03:28.055Z,51.33
2019-03-23T04:05:58.440Z,55.97
2019-03-23T04:08:28.918Z,52.87
2019-03-23T04:10:59.186Z,53.27
2019-03-23T04:13:29.390Z,55.33
2019-03-23T04:15:59.613Z,55.50
2019-03-23T04:18:30.794Z,55.17
2019-03-23T04:21:02.262Z,55.73
2019-03-23T04:23:32.467Z,57.27
2019-03-23T04:26:02.736Z,56.67
2019-03-23T04:28:32.958Z,58.00
2019-03-23T04:31:03.377Z,57.67
2019-03-23T04:33:33.997Z,56.83
2019-03-23T04:36:04.519Z,54.77
2019-03-23T04:38:34.713Z,53.20
2019-03-23T04:41:05.729Z,56.08
2019-03-23T04:43:36.006Z,59.73
2019-03-23T04:46:06.711Z,57.33
2019-03-23T04:48:36.980Z,55.63
2019-03-23T04:51:07.203Z,59.50
2019-03-23T04:53:37.817Z,56.93
2019-03-23T04:56:08.029Z,57.47
2019-03-23T04:58:38.312Z,58.85
2019-03-23T05:01:08.509Z,58.27
2019-03-23T05:03:38.742Z,61.53
2019-03-23T05:06:09.229Z,64.40
2019-03-23T05:08:39.593Z,59.40
2019-03-23T05:11:09.788Z,60.60
2019-03-23T05:13:40.250Z,57.93
2019-03-23T05:16:10.440Z,61.07
2019-03-23T05:18:41.045Z,56.77
2019-03-23T05:21:11.233Z,62.83
2019-03-23T05:23:41.477Z,61.50
2019-03-23T05:26:11.653Z,61.53
2019-03-23T05:28:41.879Z,66.13
2019-03-23T05:31:12.242Z,56.85
2019-03-23T05:33:42.456Z,62.23
2019-03-23T05:36:12.647Z,60.03
2019-03-23T05:38:44.621Z,61.00
2019-03-23T05:41:14.849Z,56.40
2019-03-23T05:43:45.304Z,57.97
2019-03-23T05:46:15.521Z,58.23
2019-03-23T05:48:46.043Z,57.87
2019-03-23T05:51:16.981Z,55.77
2019-03-23T05:53:47.459Z,55.43
2019-03-23T05:56:17.683Z,55.12
2019-03-23T05:58:48.157Z,55.40
2019-03-23T06:01:18.693Z,54.13
2019-03-23T06:03:49.130Z,55.47
2019-03-23T06:06:19.514Z,52.77
2019-03-23T06:08:54.821Z,51.50
2019-03-23T06:11:21.618Z,55.70
2019-03-23T06:13:52.005Z,54.23
2019-03-23T06:16:22.400Z,52.80
2019-03-23T06:18:52.603Z,56.57
2019-03-23T06:21:23.017Z,55.00
2019-03-23T06:23:53.476Z,50.73
2019-03-23T06:26:23.678Z,53.00
2019-03-23T06:28:53.879Z,50.67
2019-03-23T06:31:24.119Z,52.90
2019-03-23T06:33:54.300Z,54.33
2019-03-23T06:36:24.594Z,53.57
2019-03-23T06:39:04.851Z,53.03
2019-03-23T06:41:26.732Z,52.00
2019-03-23T06:43:56.969Z,51.47
2019-03-23T06:46:27.170Z,50.43
2019-03-23T06:48:57.570Z,51.80
2019-03-23T06:51:27.936Z,51.53
2019-03-23T06:53:58.154Z,52.00
2019-03-23T06:56:28.514Z,50.50
2019-03-23T06:58:59.066Z,51.83
2019-03-23T07:01:29.430Z,49.53
2019-03-23T07:03:59.668Z,49.43
2019-03-23T07:06:29.909Z,48.47
2019-03-23T07:09:00.128Z,46.20
2019-03-23T07:11:30.565Z,47.20
2019-03-23T07:14:01.039Z,48.67
2019-03-23T07:16:31.494Z,48.60
2019-03-23T07:19:01.723Z,50.85
2019-03-23T07:21:32.215Z,49.77
2019-03-23T07:24:02.403Z,49.63
2019-03-23T07:26:32.793Z,48.97
2019-03-23T07:29:03.015Z,47.43
2019-03-23T07:31:33.226Z,48.93
2019-03-23T07:34:06.177Z,46.37
2019-03-23T07:36:36.665Z,47.67
2019-03-23T07:39:08.345Z,47.20
2019-03-23T07:41:39.061Z,45.50
2019-03-23T07:44:09.281Z,47.87
2019-03-23T07:46:39.500Z,45.63
2019-03-23T07:49:09.777Z,45.63
2019-03-23T07:51:40.288Z,45.27
2019-03-23T07:54:10.836Z,46.33
2019-03-23T07:56:41.028Z,48.50
2019-03-23T07:59:11.404Z,46.60
2019-03-23T08:01:41.607Z,47.43
2019-03-23T08:04:11.896Z,43.07
2019-03-23T08:06:42.702Z,45.73
2019-03-23T08:09:20.327Z,43.40
2019-03-23T08:11:45.443Z,44.90
2019-03-23T08:14:16.905Z,44.47
2019-03-23T08:16:47.325Z,45.43
2019-03-23T08:19:17.898Z,47.10
2019-03-23T08:21:48.112Z,45.47
2019-03-23T08:24:18.342Z,45.27
2019-03-23T08:26:49.706Z,43.60
2019-03-23T08:29:20.171Z,47.03
2019-03-23T08:31:50.364Z,43.37
2019-03-23T08:34:20.577Z,43.27
2019-03-23T08:36:50.802Z,46.87
2019-03-23T08:39:21.248Z,44.70
2019-03-23T08:41:51.480Z,45.07
2019-03-23T08:44:21.678Z,45.70
2019-03-23T08:46:52.052Z,45.63
2019-03-23T08:49:22.546Z,44.55
2019-03-23T08:51:52.832Z,45.40
2019-03-23T08:54:23.047Z,45.38
2019-03-23T08:56:53.443Z,45.30
2019-03-23T08:59:23.659Z,43.80
2019-03-23T09:01:53.870Z,46.63
2019-03-23T09:04:24.093Z,44.85
2019-03-23T09:06:54.284Z,48.43
2019-03-23T09:09:24.504Z,42.53
2019-03-23T09:11:54.978Z,45.00
2019-03-23T09:14:25.193Z,43.43
2019-03-23T09:19:45.689Z,45.57
2019-03-23T09:22:15.897Z,43.10
2019-03-23T09:24:46.133Z,41.70
2019-03-23T09:27:16.544Z,39.73
2019-03-23T09:29:46.973Z,43.07
2019-03-23T09:32:17.180Z,41.53
2019-03-23T09:34:47.388Z,40.70
2019-03-23T09:37:17.588Z,42.87
2019-03-23T09:39:47.921Z,40.97
2019-03-23T09:42:18.095Z,44.60
2019-03-23T09:44:48.680Z,45.27
2019-03-23T09:47:19.069Z,42.93
2019-03-23T09:49:49.279Z,39.73
2019-03-23T09:52:19.491Z,40.37
2019-03-23T09:54:49.703Z,41.97
2019-03-23T09:57:19.916Z,39.53
2019-03-23T09:59:50.138Z,39.83
2019-03-23T10:02:20.397Z,41.77
2019-03-23T10:04:50.858Z,42.33
2019-03-23T10:07:21.083Z,40.17
2019-03-23T10:09:51.340Z,42.33
2019-03-23T10:12:21.565Z,40.05
2019-03-23T10:14:51.770Z,42.50
2019-03-23T10:17:22.401Z,42.37
2019-03-23T10:19:52.596Z,40.87
2019-03-23T10:22:23.786Z,38.80
2019-03-23T10:24:54.063Z,37.67
2019-03-23T10:27:24.261Z,41.28
2019-03-23T10:29:55.029Z,40.92
2019-03-23T10:32:25.343Z,41.17
2019-03-23T10:34:55.535Z,38.97
2019-03-23T10:37:26.158Z,42.87
2019-03-23T10:39:56.330Z,41.13
2019-03-23T10:42:26.765Z,40.97
2019-03-23T10:44:56.996Z,41.27
2019-03-23T10:47:27.571Z,41.20
2019-03-23T10:49:57.785Z,40.40
2019-03-23T10:52:27.960Z,39.30
2019-03-23T10:54:58.174Z,37.60
2019-03-23T10:57:28.364Z,39.73
2019-03-23T10:59:58.602Z,38.40
2019-03-23T11:02:28.817Z,39.37
2019-03-23T11:04:59.016Z,40.73
2019-03-23T11:07:29.206Z,39.87
2019-03-23T11:10:00.460Z,41.50
2019-03-23T11:12:30.657Z,40.57
2019-03-23T11:15:00.862Z,42.63
2019-03-23T11:17:31.063Z,43.37
2019-03-23T11:20:01.282Z,40.67
2019-03-23T11:22:31.485Z,41.50
2019-03-23T11:25:01.695Z,42.00
2019-03-23T11:27:31.896Z,41.73
2019-03-23T11:30:02.102Z,42.73
2019-03-23T11:32:32.599Z,42.60
2019-03-23T11:35:02.828Z,41.80
2019-03-23T11:37:33.147Z,43.43
2019-03-23T11:40:03.450Z,42.37
2019-03-23T11:42:33.655Z,42.03
2019-03-23T11:45:03.983Z,44.67
2019-03-23T11:47:34.180Z,44.97
2019-03-23T11:50:04.917Z,45.23
2019-03-23T11:52:35.131Z,42.77
2019-03-23T11:55:06.351Z,42.27
2019-03-23T11:57:37.526Z,42.43
2019-03-23T12:00:09.346Z,39.13
2019-03-23T12:02:39.805Z,40.17
2019-03-23T12:05:10.284Z,43.27
2019-03-23T12:07:40.489Z,46.07
2019-03-23T12:10:12.747Z,43.20
2019-03-23T12:12:43.364Z,46.10
2019-03-23T12:15:14.365Z,48.85
2019-03-23T12:17:44.560Z,41.20
2019-03-23T12:20:14.956Z,41.77
2019-03-23T12:22:45.160Z,40.83
2019-03-23T12:25:15.365Z,42.07
2019-03-23T12:27:45.731Z,41.87
2019-03-23T12:30:16.685Z,39.83
2019-03-23T12:32:46.904Z,40.40
2019-03-23T12:35:17.132Z,40.10
2019-03-23T12:37:47.331Z,41.07
2019-03-23T12:40:18.226Z,37.47
2019-03-23T12:42:48.447Z,39.17
2019-03-23T12:45:18.791Z,38.65
2019-03-23T12:47:48.994Z,37.67
2019-03-23T12:50:19.214Z,37.20
2019-03-23T12:52:49.425Z,40.83
2019-03-23T12:55:19.636Z,39.23
2019-03-23T12:57:49.847Z,39.33
2019-03-23T13:00:20.357Z,38.57
2019-03-23T13:02:51.037Z,38.07
2019-03-23T13:05:21.253Z,38.57
2019-03-23T13:07:52.343Z,40.03
2019-03-23T13:10:22.552Z,38.97
2019-03-23T13:12:52.782Z,39.60
2019-03-23T13:15:45.674Z,38.67
2019-03-23T13:18:15.889Z,39.15
2019-03-23T13:20:46.102Z,40.57
2019-03-23T13:23:16.299Z,36.97
2019-03-23T13:25:46.773Z,36.70
2019-03-23T13:28:16.969Z,37.67
2019-03-23T13:30:47.409Z,38.63
2019-03-23T13:33:17.618Z,43.37
2019-03-23T13:35:47.825Z,40.33
2019-03-23T13:38:18.060Z,41.43
2019-03-23T13:40:59.855Z,37.97
2019-03-23T13:43:36.067Z,38.97
2019-03-23T13:46:06.336Z,39.57
2019-03-23T13:48:36.548Z,38.40
2019-03-23T13:51:06.743Z,40.07
2019-03-23T13:53:37.779Z,38.93
2019-03-23T13:56:08.009Z,41.17
2019-03-23T13:58:38.222Z,41.20
2019-03-23T14:01:08.881Z,41.07
2019-03-23T14:03:39.337Z,40.43
2019-03-23T14:06:09.866Z,40.50
2019-03-23T14:11:28.333Z,39.77
2019-03-23T14:13:58.564Z,42.67
2019-03-23T14:16:29.029Z,39.77
2019-03-23T14:18:59.228Z,39.63
2019-03-23T14:21:29.417Z,39.00
2019-03-23T14:23:59.624Z,39.50
2019-03-23T14:26:30.019Z,37.70
2019-03-23T14:29:00.224Z,42.13
2019-03-23T14:31:30.666Z,40.40
2019-03-23T14:34:01.163Z,39.60
2019-03-23T14:36:31.365Z,40.67
2019-03-23T14:39:01.571Z,38.73
2019-03-23T14:41:32.341Z,35.27
2019-03-23T14:44:02.612Z,34.37
2019-03-23T14:46:32.830Z,31.47
2019-03-23T14:49:03.034Z,34.30
2019-03-23T14:51:33.246Z,31.13
2019-03-23T14:54:03.441Z,28.60
2019-03-23T14:56:33.802Z,28.20
2019-03-23T14:59:04.085Z,29.80
2019-03-23T15:01:34.534Z,24.97
2019-03-23T15:04:05.440Z,24.60
2019-03-23T15:06:35.664Z,27.07
2019-03-23T15:09:07.280Z,26.00
2019-03-23T15:11:37.488Z,26.57
2019-03-23T15:14:15.319Z,25.60
2019-03-23T15:16:45.534Z,26.73
2019-03-23T15:19:15.992Z,25.47
2019-03-23T15:21:46.221Z,25.67
2019-03-23T15:24:16.427Z,25.30
2019-03-23T15:26:46.628Z,25.50
2019-03-23T15:29:16.843Z,23.87
2019-03-23T15:31:47.068Z,24.90
2019-03-23T15:34:17.257Z,22.77
2019-03-23T15:36:47.460Z,22.17
2019-03-23T15:39:17.662Z,23.03
2019-03-23T15:41:49.337Z,21.00
2019-03-23T15:44:19.536Z,21.03
2019-03-23T15:46:49.750Z,21.77
2019-03-23T15:49:19.941Z,21.63
2019-03-23T15:51:50.154Z,21.23
2019-03-23T15:54:20.377Z,19.90
2019-03-23T15:56:50.579Z,21.40
2019-03-23T15:59:20.786Z,18.57
2019-03-23T16:01:50.984Z,16.17
2019-03-23T16:04:21.342Z,16.30
2019-03-23T16:06:51.532Z,15.80
2019-03-23T16:09:21.813Z,15.80
2019-03-23T16:11:52.535Z,14.57
2019-03-23T16:14:22.987Z,15.63
2019-03-23T16:16:53.195Z,18.17
2019-03-23T16:19:23.668Z,14.18
2019-03-23T16:21:53.872Z,13.13
2019-03-23T16:24:24.062Z,11.23
2019-03-23T16:26:54.272Z,12.30
2019-03-23T16:29:24.472Z,11.00
2019-03-23T16:32:00.361Z,9.90
2019-03-23T16:34:36.211Z,9.90
2019-03-23T16:37:06.854Z,8.53
2019-03-23T16:39:37.073Z,8.83
2019-03-23T16:42:07.279Z,10.37
2019-03-23T16:44:37.720Z,8.17
2019-03-23T16:47:07.923Z,9.37
2019-03-23T16:49:38.126Z,8.80
2019-03-23T16:52:08.400Z,8.97
2019-03-23T16:54:38.595Z,8.00
2019-03-23T16:57:08.798Z,7.53
2019-03-23T16:59:38.980Z,7.53
2019-03-23T17:02:09.177Z,7.77
2019-03-23T17:04:39.362Z,7.20
2019-03-23T17:07:09.564Z,7.87
2019-03-23T17:09:40.003Z,7.97
2019-03-23T17:12:10.189Z,7.93
2019-03-23T17:14:40.371Z,7.47
2019-03-23T17:17:10.564Z,8.63
2019-03-23T17:19:40.751Z,7.70
2019-03-23T17:22:10.962Z,7.95
2019-03-23T17:24:41.141Z,7.23
2019-03-23T17:27:11.484Z,8.53
2019-03-23T17:29:41.674Z,8.83
2019-03-23T17:32:11.879Z,8.43
2019-03-23T17:34:42.137Z,8.53
2019-03-23T17:37:12.330Z,9.48
2019-03-23T17:39:42.812Z,9.55
2019-03-23T17:42:13.012Z,9.90
2019-03-23T17:44:43.289Z,9.37
2019-03-23T17:47:13.584Z,9.48
2019-03-23T17:49:45.340Z,9.00
2019-03-23T17:52:15.621Z,8.70
2019-03-23T17:54:45.821Z,8.50
2019-03-23T17:57:16.097Z,7.90
2019-03-23T17:59:47.521Z,9.30
2019-03-23T18:02:17.735Z,7.80
2019-03-23T18:04:47.930Z,8.20
2019-03-23T18:07:18.120Z,8.53
2019-03-23T18:09:48.315Z,8.57
2019-03-23T18:12:18.591Z,8.10
2019-03-23T18:14:48.798Z,10.00
2019-03-23T18:17:18.998Z,9.47
2019-03-23T18:19:49.179Z,9.80
2019-03-23T18:22:19.367Z,9.43
2019-03-23T18:24:49.580Z,9.20
2019-03-23T18:27:19.756Z,9.43
2019-03-23T18:29:49.969Z,10.00
2019-03-23T18:32:20.244Z,13.13
2019-03-23T18:34:50.606Z,12.87
2019-03-23T18:37:20.807Z,15.07
2019-03-23T18:39:51.021Z,13.10
2019-03-23T18:42:21.220Z,11.77
2019-03-23T18:44:51.448Z,12.50
2019-03-23T18:47:21.787Z,14.43
2019-03-23T18:49:52.066Z,12.43
2019-03-23T18:52:22.257Z,11.43
2019-03-23T18:54:52.544Z,13.17
2019-03-23T18:57:22.738Z,16.00
2019-03-23T18:59:53.200Z,16.70
2019-03-23T19:02:23.514Z,17.47
2019-03-23T19:04:53.801Z,17.50
2019-03-23T19:07:23.954Z,20.73
2019-03-23T19:09:54.166Z,19.30
2019-03-23T19:12:24.359Z,17.53
2019-03-23T19:14:54.559Z,18.43
2019-03-23T19:17:24.756Z,18.63
2019-03-23T19:19:54.962Z,16.27
2019-03-23T19:22:25.973Z,17.27
2019-03-23T19:24:56.180Z,17.23
2019-03-23T19:27:26.382Z,16.63
2019-03-23T19:29:56.584Z,15.90
2019-03-23T19:32:26.786Z,16.77
2019-03-23T19:34:57.299Z,16.10
2019-03-23T19:37:27.494Z,15.07
2019-03-23T19:39:57.676Z,15.37
2019-03-23T19:42:27.882Z,14.20
2019-03-23T19:44:58.309Z,13.10
2019-03-23T19:47:28.603Z,11.93
2019-03-23T19:49:58.814Z,11.37
2019-03-23T19:52:29.010Z,9.70
2019-03-23T19:54:59.461Z,9.20
2019-03-23T19:57:29.642Z,8.60
2019-03-23T19:59:59.833Z,7.60
2019-03-23T20:02:30.014Z,8.50
2019-03-23T20:05:00.382Z,8.07
2019-03-23T20:07:33.249Z,7.70
2019-03-23T20:10:02.968Z,7.23
2019-03-23T20:12:33.146Z,7.83
2019-03-23T20:15:03.434Z,8.00
2019-03-23T20:17:33.703Z,7.57
2019-03-23T20:20:04.703Z,7.43
2019-03-23T20:22:35.064Z,7.70
2019-03-23T20:25:06.762Z,8.17
2019-03-23T20:27:37.917Z,8.87
2019-03-23T20:30:09.682Z,7.00
2019-03-23T20:32:39.867Z,6.10
2019-03-23T20:35:10.832Z,6.80
2019-03-23T20:37:41.020Z,6.30
2019-03-23T20:40:13.374Z,7.00
2019-03-23T20:42:44.379Z,6.33
2019-03-23T20:45:19.046Z,7.07
2019-03-23T20:47:49.755Z,6.90
2019-03-23T20:50:19.977Z,7.80
2019-03-23T20:52:50.592Z,6.87
2019-03-23T20:55:28.400Z,6.33
2019-03-23T20:57:59.157Z,7.30
2019-03-23T21:00:29.346Z,6.87
2019-03-23T21:02:59.739Z,6.42
2019-03-23T21:05:34.124Z,7.07
2019-03-23T21:08:01.991Z,6.47
2019-03-23T21:10:32.294Z,6.73
2019-03-23T21:13:02.790Z,7.07
2019-03-23T21:15:33.000Z,6.80
2019-03-23T21:18:03.385Z,7.27
2019-03-23T21:20:33.581Z,6.33
2019-03-23T21:23:03.954Z,6.53
2019-03-23T21:25:34.329Z,6.53
2019-03-23T21:28:04.774Z,6.43
2019-03-23T21:30:34.968Z,6.50
2019-03-23T21:33:05.389Z,6.93
2019-03-23T21:35:35.584Z,6.03
2019-03-23T21:38:06.089Z,6.00
2019-03-23T21:40:36.670Z,6.47
2019-03-23T21:43:06.875Z,6.07
2019-03-23T21:45:37.063Z,5.87
2019-03-23T21:48:07.823Z,8.13
2019-03-23T21:50:47.033Z,8.80
2019-03-23T21:53:11.023Z,7.03
2019-03-23T21:55:41.204Z,6.13
2019-03-23T21:58:11.395Z,6.83
2019-03-23T22:00:41.598Z,7.17
2019-03-23T22:03:11.782Z,6.53
2019-03-23T22:05:42.163Z,6.47
2019-03-23T22:08:12.417Z,7.40
2019-03-23T22:10:42.620Z,7.17
2019-03-23T22:13:12.816Z,5.83
2019-03-23T22:15:43.387Z,5.80
2019-03-23T22:18:13.574Z,6.13
2019-03-23T22:20:43.764Z,6.60
2019-03-23T22:23:13.966Z,6.00
2019-03-23T22:25:44.147Z,6.63
2019-03-23T22:28:14.375Z,6.77
2019-03-23T22:30:44.550Z,6.17
2019-03-23T22:33:14.998Z,7.25
2019-03-23T22:35:45.178Z,7.20
2019-03-23T22:38:15.683Z,6.50
2019-03-23T22:40:46.199Z,7.60
2019-03-23T22:43:16.751Z,7.23
2019-03-23T22:45:46.943Z,6.47
2019-03-23T22:48:17.435Z,7.37
2019-03-23T22:50:47.606Z,6.10
2019-03-23T22:53:17.802Z,5.95
2019-03-23T22:55:48.128Z,6.73
2019-03-23T22:58:18.339Z,6.40
2019-03-23T23:00:50.027Z,5.27
2019-03-23T23:03:21.578Z,6.22
2019-03-23T23:05:51.845Z,6.50
2019-03-23T23:08:22.348Z,5.43
2019-03-23T23:10:52.654Z,6.00
2019-03-23T23:13:22.846Z,6.12
2019-03-23T23:15:53.289Z,6.30
2019-03-23T23:18:23.499Z,6.97
2019-03-23T23:20:53.672Z,6.07
2019-03-23T23:23:24.155Z,6.23
2019-03-23T23:25:54.338Z,5.03
2019-03-23T23:28:24.711Z,5.90
2019-03-23T23:30:54.922Z,5.50
2019-03-23T23:33:25.757Z,5.10
2019-03-23T23:35:55.954Z,6.40
2019-03-23T23:38:26.321Z,5.63
2019-03-23T23:40:56.645Z,6.17
2019-03-23T23:43:26.962Z,6.47
2019-03-23T23:45:57.232Z,5.77
2019-03-23T23:48:27.421Z,5.80
2019-03-23T23:50:57.612Z,5.17
2019-03-23T23:53:28.078Z,6.50
2019-03-23T23:55:58.283Z,5.97
2019-03-23T23:58:28.456Z,6.77
